createdAt,value
2022-10-22T00:00:16.373Z,100.00
2022-10-22T00:02:43.899Z,100.00
2022-10-22T00:05:10.851Z,100.00
2022-10-22T00:07:37.590Z,100.00
2022-10-22T00:10:06.445Z,100.00
2022-10-22T00:12:32.998Z,100.00
2022-10-22T00:14:59.480Z,100.00
2022-10-22T00:17:25.875Z,100.00
2022-10-22T00:19:52.302Z,100.00
2022-10-22T00:22:18.750Z,100.00
2022-10-22T00:24:45.165Z,100.00
2022-10-22T00:27:12.872Z,100.00
2022-10-22T00:29:39.272Z,100.00
2022-10-22T00:32:07.058Z,100.00
2022-10-22T00:34:33.913Z,100.00
2022-10-22T00:37:00.339Z,100.00
2022-10-22T00:39:27.763Z,100.00
2022-10-22T00:41:56.367Z,100.00
2022-10-22T00:45:00.429Z,100.00
2022-10-22T00:47:31.487Z,100.00
2022-10-22T00:50:00.091Z,100.00
2022-10-22T00:52:27.343Z,100.00
2022-10-22T00:54:54.033Z,100.00
2022-10-22T00:57:21.027Z,100.00
2022-10-22T00:59:48.235Z,100.00
2022-10-22T01:02:15.525Z,100.00
2022-10-22T01:04:42.074Z,100.00
2022-10-22T01:07:17.007Z,100.00
2022-10-22T01:10:08.682Z,100.00
2022-10-22T01:12:49.232Z,100.00
2022-10-22T01:15:28.818Z,100.00
2022-10-22T01:18:05.133Z,100.00
2022-10-22T01:20:56.989Z,100.00
2022-10-22T01:23:41.547Z,100.00
2022-10-22T01:26:42.012Z,100.00
2022-10-22T01:29:47.230Z,100.00
2022-10-22T01:32:23.959Z,100.00
2022-10-22T01:34:56.151Z,100.00
2022-10-22T01:37:26.736Z,100.00
2022-10-22T01:39:54.207Z,100.00
2022-10-22T01:42:21.223Z,100.00
2022-10-22T01:44:50.036Z,100.00
2022-10-22T01:47:44.225Z,100.00
2022-10-22T01:50:13.460Z,100.00
2022-10-22T01:53:07.702Z,100.00
2022-10-22T01:55:46.223Z,100.00
2022-10-22T01:58:58.246Z,100.00
2022-10-22T02:01:46.622Z,100.00
2022-10-22T02:04:35.465Z,100.00
2022-10-22T02:07:06.247Z,100.00
2022-10-22T02:09:34.447Z,100.00
2022-10-22T02:14:32.284Z,100.00
2022-10-22T02:17:01.336Z,100.00
2022-10-22T02:19:40.099Z,100.00
2022-10-22T02:22:07.414Z,100.00
2022-10-22T02:24:34.245Z,100.00
2022-10-22T02:27:22.798Z,100.00
2022-10-22T02:30:01.603Z,100.00
2022-10-22T02:32:37.116Z,100.00
2022-10-22T02:35:05.008Z,100.00
2022-10-22T02:37:32.389Z,100.00
2022-10-22T02:39:58.823Z,100.00
2022-10-22T02:42:26.362Z,100.00
2022-10-22T02:44:52.803Z,100.00
2022-10-22T02:47:19.796Z,100.00
2022-10-22T02:49:46.137Z,100.00
2022-10-22T02:52:13.029Z,100.00
2022-10-22T02:54:39.420Z,100.00
2022-10-22T02:57:06.001Z,100.00
2022-10-22T02:59:32.430Z,100.00
2022-10-22T03:01:58.849Z,100.00
2022-10-22T03:04:25.301Z,100.00
2022-10-22T03:06:51.820Z,100.00
2022-10-22T03:09:21.329Z,100.00
2022-10-22T03:11:50.615Z,100.00
2022-10-22T03:14:17.162Z,100.00
2022-10-22T03:16:43.608Z,100.00
2022-10-22T03:19:10.200Z,100.00
2022-10-22T03:22:05.180Z,100.00
2022-10-22T03:24:39.605Z,100.00
2022-10-22T03:27:06.005Z,100.00
2022-10-22T03:29:36.036Z,100.00
2022-10-22T03:32:02.476Z,100.00
2022-10-22T03:34:28.935Z,100.00
2022-10-22T03:36:59.363Z,100.00
2022-10-22T03:39:27.209Z,100.00
2022-10-22T03:41:54.043Z,100.00
2022-10-22T03:44:20.995Z,100.00
2022-10-22T03:46:47.398Z,100.00
2022-10-22T03:49:14.001Z,100.00
2022-10-22T03:51:40.529Z,100.00
2022-10-22T03:54:07.069Z,100.00
2022-10-22T03:56:33.722Z,100.00
2022-10-22T03:59:01.228Z,100.00
2022-10-22T04:01:30.176Z,100.00
2022-10-22T04:03:57.538Z,100.00
2022-10-22T04:06:24.669Z,100.00
2022-10-22T04:08:51.334Z,100.00
2022-10-22T04:11:17.985Z,100.00
2022-10-22T04:13:45.678Z,100.00
2022-10-22T04:16:18.162Z,100.00
2022-10-22T04:18:46.665Z,100.00
2022-10-22T04:21:16.005Z,100.00
2022-10-22T04:23:47.502Z,100.00
2022-10-22T04:26:14.792Z,100.00
2022-10-22T04:28:41.697Z,100.00
2022-10-22T04:31:13.857Z,100.00
2022-10-22T04:33:41.219Z,100.00
2022-10-22T04:36:18.788Z,100.00
2022-10-22T04:38:46.674Z,100.00
2022-10-22T04:41:19.051Z,100.00
2022-10-22T04:43:46.346Z,100.00
2022-10-22T04:46:14.289Z,100.00
2022-10-22T04:48:42.270Z,100.00
2022-10-22T04:51:11.932Z,100.00
2022-10-22T04:53:40.380Z,100.00
2022-10-22T04:56:08.696Z,100.00
2022-10-22T04:58:35.121Z,100.00
2022-10-22T05:01:08.534Z,100.00
2022-10-22T05:03:34.985Z,100.00
2022-10-22T05:06:02.651Z,100.00
2022-10-22T05:08:29.083Z,100.00
2022-10-22T05:10:55.538Z,100.00
2022-10-22T05:13:21.976Z,100.00
2022-10-22T05:15:48.369Z,100.00
2022-10-22T05:18:16.814Z,100.00
2022-10-22T05:20:46.733Z,100.00
2022-10-22T05:23:13.174Z,100.00
2022-10-22T05:25:39.643Z,100.00
2022-10-22T05:28:06.237Z,100.00
2022-10-22T05:30:32.609Z,100.00
2022-10-22T05:32:59.052Z,100.00
2022-10-22T05:35:25.573Z,100.00
2022-10-22T05:37:51.970Z,100.00
2022-10-22T05:40:30.165Z,100.00
2022-10-22T05:42:58.568Z,100.00
2022-10-22T05:45:24.926Z,100.00
2022-10-22T05:47:51.380Z,100.00
2022-10-22T05:50:17.806Z,100.00
2022-10-22T05:52:44.236Z,100.00
2022-10-22T05:55:10.684Z,100.00
2022-10-22T05:57:37.115Z,100.00
2022-10-22T06:00:04.188Z,100.00
2022-10-22T06:02:30.616Z,100.00
2022-10-22T06:04:57.006Z,100.00
2022-10-22T06:07:23.534Z,100.00
2022-10-22T06:09:50.299Z,100.00
2022-10-22T06:12:16.752Z,100.00
2022-10-22T06:14:43.157Z,100.00
2022-10-22T06:17:09.873Z,100.00
2022-10-22T06:19:36.421Z,100.00
2022-10-22T06:22:04.343Z,100.00
2022-10-22T06:24:31.068Z,100.00
2022-10-22T06:26:57.431Z,100.00
2022-10-22T06:29:23.815Z,100.00
2022-10-22T06:31:50.206Z,100.00
2022-10-22T06:34:20.464Z,100.00
2022-10-22T06:36:47.326Z,100.00
2022-10-22T06:39:16.050Z,100.00
2022-10-22T06:41:42.447Z,100.00
2022-10-22T06:44:16.712Z,100.00
2022-10-22T06:46:43.627Z,100.00
2022-10-22T06:49:14.139Z,100.00
2022-10-22T06:51:40.801Z,100.00
2022-10-22T06:54:07.451Z,100.00
2022-10-22T06:56:33.853Z,100.00
2022-10-22T06:59:00.254Z,100.00
2022-10-22T07:01:29.648Z,100.00
2022-10-22T07:03:56.458Z,100.00
2022-10-22T07:06:24.244Z,100.00
2022-10-22T07:08:52.007Z,100.00
2022-10-22T07:11:22.809Z,100.00
2022-10-22T07:13:49.698Z,100.00
2022-10-22T07:16:18.021Z,100.00
2022-10-22T07:18:45.417Z,100.00
2022-10-22T07:21:13.001Z,100.00
2022-10-22T07:23:39.355Z,100.00
2022-10-22T07:26:09.871Z,100.00
2022-10-22T07:28:39.725Z,100.00
2022-10-22T07:31:07.617Z,100.00
2022-10-22T07:33:34.096Z,100.00
2022-10-22T07:36:04.199Z,100.00
2022-10-22T07:38:31.544Z,100.00
2022-10-22T07:40:58.576Z,100.00
2022-10-22T07:43:25.249Z,100.00
2022-10-22T07:45:51.690Z,100.00
2022-10-22T07:48:18.516Z,100.00
2022-10-22T07:53:11.251Z,100.00
2022-10-22T07:55:37.887Z,100.00
2022-10-22T07:58:04.308Z,100.00
2022-10-22T08:00:30.697Z,100.00
2022-10-22T08:02:57.054Z,100.00
2022-10-22T08:05:23.583Z,100.00
2022-10-22T08:07:49.937Z,100.00
2022-10-22T08:10:16.297Z,100.00
2022-10-22T08:12:42.982Z,100.00
2022-10-22T08:15:10.071Z,100.00
2022-10-22T08:17:37.203Z,100.00
2022-10-22T08:20:04.210Z,100.00
2022-10-22T08:22:30.636Z,100.00
2022-10-22T08:24:57.048Z,100.00
2022-10-22T08:27:23.420Z,100.00
2022-10-22T08:29:49.838Z,100.00
2022-10-22T08:32:17.266Z,100.00
2022-10-22T08:34:43.631Z,100.00
2022-10-22T08:37:14.135Z,100.00
2022-10-22T08:39:41.392Z,100.00
2022-10-22T08:42:34.265Z,100.00
2022-10-22T08:45:24.476Z,100.00
2022-10-22T08:48:14.470Z,100.00
2022-10-22T08:50:48.757Z,100.00
2022-10-22T08:53:22.299Z,100.00
2022-10-22T08:55:52.438Z,100.00
2022-10-22T08:58:36.833Z,100.00
2022-10-22T09:01:11.008Z,100.00
2022-10-22T09:03:40.386Z,100.00
2022-10-22T09:06:18.660Z,100.00
2022-10-22T09:08:46.711Z,100.00
2022-10-22T09:11:13.082Z,100.00
2022-10-22T09:13:45.215Z,99.44
2022-10-22T09:16:22.242Z,99.48
2022-10-22T09:18:56.690Z,99.71
2022-10-22T09:21:32.989Z,98.73
2022-10-22T09:24:00.076Z,98.29
2022-10-22T09:26:26.713Z,97.82
2022-10-22T09:28:53.351Z,97.21
2022-10-22T09:31:19.798Z,96.48
2022-10-22T09:33:51.903Z,96.14
2022-10-22T09:36:22.435Z,95.92
2022-10-22T09:38:53.174Z,95.89
2022-10-22T09:41:23.071Z,94.29
2022-10-22T09:43:50.015Z,93.90
2022-10-22T09:46:24.328Z,95.16
2022-10-22T09:49:12.065Z,94.91
2022-10-22T09:51:46.591Z,94.63
2022-10-22T09:54:29.278Z,94.62
2022-10-22T09:56:58.734Z,91.82
2022-10-22T09:59:31.700Z,92.47
2022-10-22T10:02:19.949Z,92.43
2022-10-22T10:04:52.334Z,92.62
2022-10-22T10:07:27.692Z,91.95
2022-10-22T10:09:54.376Z,92.65
2022-10-22T10:15:27.805Z,92.47
2022-10-22T10:18:06.202Z,91.28
2022-10-22T10:20:53.994Z,90.03
2022-10-22T10:23:36.227Z,90.57
2022-10-22T10:26:26.776Z,89.42
2022-10-22T10:29:24.957Z,89.76
2022-10-22T10:32:23.558Z,88.77
2022-10-22T10:35:05.499Z,88.83
2022-10-22T10:37:43.686Z,88.89
2022-10-22T10:40:33.135Z,88.60
2022-10-22T10:43:09.946Z,87.24
2022-10-22T10:45:42.304Z,86.25
2022-10-22T10:48:35.872Z,86.50
2022-10-22T10:51:14.202Z,84.92
2022-10-22T10:54:18.158Z,84.31
2022-10-22T10:56:53.075Z,84.54
2022-10-22T10:59:28.358Z,85.56
2022-10-22T11:02:16.010Z,85.78
2022-10-22T11:04:45.397Z,84.51
2022-10-22T11:07:30.436Z,84.32
2022-10-22T11:10:20.321Z,85.06
2022-10-22T11:12:54.382Z,85.77
2022-10-22T11:15:35.629Z,85.41
2022-10-22T11:18:29.026Z,84.50
2022-10-22T11:21:06.772Z,83.15
2022-10-22T11:23:40.932Z,82.40
2022-10-22T11:26:15.446Z,82.17
2022-10-22T11:28:47.727Z,82.17
2022-10-22T11:31:16.141Z,81.51
2022-10-22T11:34:04.834Z,82.52
2022-10-22T11:36:37.658Z,82.00
2022-10-22T11:39:05.081Z,81.08
2022-10-22T11:41:34.337Z,81.07
2022-10-22T11:44:20.820Z,81.21
2022-10-22T11:46:56.047Z,81.22
2022-10-22T11:49:28.348Z,79.50
2022-10-22T11:52:39.108Z,79.40
2022-10-22T11:55:48.710Z,78.83
2022-10-22T11:58:33.894Z,79.17
2022-10-22T12:01:09.326Z,78.90
2022-10-22T12:03:40.824Z,79.15
2022-10-22T12:06:14.927Z,79.55
2022-10-22T12:08:51.274Z,79.18
2022-10-22T12:11:49.606Z,78.46
2022-10-22T12:14:51.032Z,78.46
2022-10-22T12:17:19.309Z,77.89
2022-10-22T12:19:50.118Z,78.02
2022-10-22T12:22:21.966Z,78.25
2022-10-22T12:24:51.766Z,77.64
2022-10-22T12:27:26.555Z,76.74
2022-10-22T12:29:58.633Z,77.84
2022-10-22T12:32:42.778Z,78.10
2022-10-22T12:35:16.828Z,77.92
2022-10-22T12:37:43.723Z,77.60
2022-10-22T12:40:31.598Z,75.77
2022-10-22T12:43:01.431Z,74.64
2022-10-22T12:45:34.115Z,74.88
2022-10-22T12:48:07.583Z,74.20
2022-10-22T12:50:40.047Z,73.51
2022-10-22T12:53:31.746Z,73.18
2022-10-22T12:56:02.683Z,72.23
2022-10-22T12:58:41.437Z,70.93
2022-10-22T13:01:15.100Z,70.80
2022-10-22T13:03:49.822Z,71.25
2022-10-22T13:06:19.222Z,72.16
2022-10-22T13:08:56.036Z,70.83
2022-10-22T13:11:22.444Z,70.65
2022-10-22T13:13:48.774Z,69.92
2022-10-22T13:16:26.212Z,71.26
2022-10-22T13:18:53.964Z,71.56
2022-10-22T13:21:37.492Z,72.02
2022-10-22T13:24:19.736Z,71.29
2022-10-22T13:26:50.039Z,70.04
2022-10-22T13:29:20.181Z,70.08
2022-10-22T13:31:50.202Z,70.03
2022-10-22T13:34:22.316Z,70.39
2022-10-22T13:36:50.010Z,70.58
2022-10-22T13:39:19.207Z,70.88
2022-10-22T13:41:45.966Z,70.96
2022-10-22T13:44:12.347Z,72.12
2022-10-22T13:46:42.570Z,72.71
2022-10-22T13:49:20.716Z,72.40
2022-10-22T13:51:47.558Z,73.47
2022-10-22T13:54:17.575Z,73.99
2022-10-22T13:56:43.931Z,74.41
2022-10-22T13:59:10.662Z,75.30
2022-10-22T14:01:38.258Z,75.86
2022-10-22T14:04:06.793Z,75.66
2022-10-22T14:06:34.138Z,76.31
2022-10-22T14:09:04.389Z,76.68
2022-10-22T14:11:32.563Z,76.87
2022-10-22T14:13:59.201Z,76.33
2022-10-22T14:16:28.001Z,76.29
2022-10-22T14:18:55.845Z,75.85
2022-10-22T14:21:22.543Z,76.33
2022-10-22T14:23:51.055Z,76.90
2022-10-22T14:26:28.178Z,77.22
2022-10-22T14:29:11.384Z,77.19
2022-10-22T14:31:44.069Z,77.72
2022-10-22T14:34:13.643Z,78.18
2022-10-22T14:36:40.248Z,78.49
2022-10-22T14:39:06.821Z,79.04
2022-10-22T14:41:33.656Z,79.50
2022-10-22T14:44:00.116Z,79.39
2022-10-22T14:46:26.616Z,79.52
2022-10-22T14:48:53.049Z,79.96
2022-10-22T14:51:23.143Z,80.16
2022-10-22T14:53:49.810Z,80.06
2022-10-22T14:56:21.095Z,80.78
2022-10-22T14:58:47.691Z,80.82
2022-10-22T15:01:14.098Z,80.85
2022-10-22T15:03:40.504Z,81.87
2022-10-22T15:06:08.168Z,81.66
2022-10-22T15:08:34.644Z,81.90
2022-10-22T15:11:07.027Z,82.63
2022-10-22T15:13:33.911Z,82.96
2022-10-22T15:16:01.038Z,83.06
2022-10-22T15:18:28.382Z,82.27
2022-10-22T15:21:07.550Z,82.69
2022-10-22T15:23:33.958Z,82.51
2022-10-22T15:26:00.336Z,83.16
2022-10-22T15:28:26.668Z,82.91
2022-10-22T15:30:57.654Z,83.22
2022-10-22T15:33:24.851Z,83.26
2022-10-22T15:35:52.199Z,82.52
2022-10-22T15:38:18.859Z,82.33
2022-10-22T15:40:45.600Z,82.60
2022-10-22T15:43:12.979Z,82.86
2022-10-22T15:45:39.662Z,83.15
2022-10-22T15:48:06.427Z,82.47
2022-10-22T15:50:37.884Z,83.03
2022-10-22T15:53:05.336Z,83.36
2022-10-22T15:55:31.766Z,83.82
2022-10-22T15:58:00.629Z,83.99
2022-10-22T16:00:30.029Z,84.10
2022-10-22T16:02:56.401Z,84.34
2022-10-22T16:05:22.774Z,84.52
2022-10-22T16:07:49.754Z,84.97
2022-10-22T16:10:16.120Z,85.04
2022-10-22T16:12:43.410Z,85.64
2022-10-22T16:15:10.564Z,85.82
2022-10-22T16:17:36.992Z,86.18
2022-10-22T16:20:03.726Z,86.98
2022-10-22T16:22:30.146Z,87.01
2022-10-22T16:24:56.606Z,86.93
2022-10-22T16:27:22.971Z,87.67
2022-10-22T16:29:49.373Z,87.90
2022-10-22T16:32:16.743Z,88.41
2022-10-22T16:34:43.351Z,88.40
2022-10-22T16:37:12.588Z,88.86
2022-10-22T16:39:38.962Z,89.21
2022-10-22T16:42:05.852Z,89.43
2022-10-22T16:44:32.271Z,89.66
2022-10-22T16:46:58.772Z,89.95
2022-10-22T16:49:25.167Z,89.80
2022-10-22T16:51:51.528Z,90.21
2022-10-22T16:54:17.953Z,90.08
2022-10-22T16:56:44.361Z,90.09
2022-10-22T16:59:10.733Z,90.42
2022-10-22T17:01:40.870Z,90.52
2022-10-22T17:04:08.372Z,90.73
2022-10-22T17:06:34.728Z,90.84
2022-10-22T17:09:01.189Z,91.36
2022-10-22T17:11:30.086Z,91.67
2022-10-22T17:13:56.626Z,91.66
2022-10-22T17:16:24.803Z,92.09
2022-10-22T17:18:52.838Z,92.22
2022-10-22T17:21:20.337Z,92.31
2022-10-22T17:23:47.248Z,92.40
2022-10-22T17:26:17.387Z,92.58
2022-10-22T17:28:44.076Z,92.66
2022-10-22T17:31:19.708Z,92.84
2022-10-22T17:33:46.968Z,92.81
2022-10-22T17:36:14.207Z,93.49
2022-10-22T17:38:42.271Z,93.02
2022-10-22T17:41:14.556Z,92.88
2022-10-22T17:43:41.504Z,93.46
2022-10-22T17:46:13.407Z,93.19
2022-10-22T17:48:40.134Z,93.71
2022-10-22T17:51:11.574Z,93.94
2022-10-22T17:53:42.903Z,93.79
2022-10-22T17:56:10.400Z,94.18
2022-10-22T17:58:37.278Z,93.84
2022-10-22T18:01:04.820Z,94.47
2022-10-22T18:03:32.095Z,94.17
2022-10-22T18:06:06.813Z,94.21
2022-10-22T18:08:33.370Z,94.42
2022-10-22T18:11:00.196Z,94.21
2022-10-22T18:13:26.688Z,94.67
2022-10-22T18:15:56.652Z,94.36
2022-10-22T18:18:24.108Z,94.57
2022-10-22T18:20:51.702Z,94.09
2022-10-22T18:23:19.333Z,94.22
2022-10-22T18:25:48.241Z,94.34
2022-10-22T18:28:16.399Z,94.62
2022-10-22T18:30:43.876Z,94.76
2022-10-22T18:33:12.535Z,94.54
2022-10-22T18:35:41.125Z,94.46
2022-10-22T18:38:10.739Z,94.78
2022-10-22T18:40:44.439Z,94.62
2022-10-22T18:43:10.911Z,94.41
2022-10-22T18:45:41.861Z,94.74
2022-10-22T18:48:08.304Z,94.56
2022-10-22T18:50:34.658Z,94.54
2022-10-22T18:53:01.026Z,94.68
2022-10-22T18:55:27.598Z,94.92
2022-10-22T18:57:53.931Z,94.80
2022-10-22T19:00:20.345Z,95.30
2022-10-22T19:02:46.692Z,95.40
2022-10-22T19:05:13.028Z,95.68
2022-10-22T19:07:40.931Z,95.54
2022-10-22T19:10:08.340Z,95.14
2022-10-22T20:41:40.569Z,96.61
2022-10-22T20:44:11.309Z,96.76
2022-10-22T20:46:37.686Z,96.80
2022-10-22T20:49:09.936Z,97.01
2022-10-22T20:51:37.152Z,97.23
2022-10-22T20:54:04.624Z,97.28
2022-10-22T20:56:31.773Z,97.46
2022-10-22T20:59:05.593Z,97.62
2022-10-22T21:01:52.256Z,97.55
2022-10-22T21:04:20.634Z,97.74
2022-10-22T21:06:50.361Z,97.61
2022-10-22T21:09:16.865Z,97.83
2022-10-22T21:11:43.808Z,97.29
2022-10-22T21:14:12.090Z,97.61
2022-10-22T21:16:45.879Z,97.51
2022-10-22T21:19:12.621Z,97.17
2022-10-22T21:21:39.012Z,97.93
2022-10-22T21:24:05.648Z,97.43
2022-10-22T21:26:32.123Z,97.83
2022-10-22T21:28:58.525Z,97.68
2022-10-22T21:31:26.292Z,97.80
2022-10-22T21:33:54.317Z,98.03
2022-10-22T21:36:23.282Z,97.87
2022-10-22T21:38:51.801Z,98.97
2022-10-22T21:41:20.421Z,98.15
2022-10-22T21:43:47.003Z,98.45
2022-10-22T21:46:18.504Z,98.54
2022-10-22T21:48:45.796Z,97.79
2022-10-22T21:51:19.404Z,98.34
2022-10-22T21:53:46.344Z,97.85
2022-10-22T21:56:22.432Z,98.27
2022-10-22T21:58:49.145Z,98.61
2022-10-22T22:01:16.541Z,98.03
2022-10-22T22:03:45.600Z,98.32
2022-10-22T22:06:13.359Z,98.80
2022-10-22T22:08:41.126Z,98.64
2022-10-22T22:11:10.736Z,97.73
2022-10-22T22:13:37.773Z,97.65
2022-10-22T22:16:09.719Z,98.15
2022-10-22T22:18:37.070Z,97.69
2022-10-22T22:21:09.309Z,98.27
2022-10-22T22:23:37.503Z,97.99
2022-10-22T22:26:05.298Z,98.65
2022-10-22T22:28:32.509Z,98.56
2022-10-22T22:30:59.762Z,98.32
2022-10-22T22:33:27.107Z,98.69
2022-10-22T22:35:58.696Z,98.49
2022-10-22T22:38:25.142Z,98.65
2022-10-22T22:40:51.631Z,98.81
2022-10-22T22:43:18.104Z,98.48
2022-10-22T22:45:44.507Z,98.98
2022-10-22T22:48:11.026Z,99.03
2022-10-22T22:50:37.485Z,99.34
2022-10-22T22:53:03.976Z,99.47
2022-10-22T22:55:31.977Z,98.97
2022-10-22T22:57:58.808Z,98.71
2022-10-22T23:00:25.325Z,99.40
2022-10-22T23:02:55.785Z,99.58
2022-10-22T23:05:22.423Z,99.34
2022-10-22T23:07:49.737Z,98.83
2022-10-22T23:10:16.263Z,99.24
2022-10-22T23:12:43.939Z,99.21
2022-10-22T23:15:11.258Z,99.05
2022-10-22T23:17:38.442Z,99.29
2022-10-22T23:20:05.661Z,99.68
2022-10-22T23:22:32.076Z,99.43
2022-10-22T23:24:58.636Z,99.81
2022-10-22T23:27:25.033Z,99.27
2022-10-22T23:29:51.510Z,99.35
2022-10-22T23:32:17.920Z,99.85
2022-10-22T23:34:45.329Z,99.82
2022-10-22T23:37:12.158Z,99.65
2022-10-22T23:39:38.734Z,100.00
2022-10-22T23:42:05.305Z,100.00
2022-10-22T23:44:31.745Z,99.90
2022-10-22T23:46:58.265Z,100.00
2022-10-22T23:49:25.754Z,100.00
2022-10-22T23:51:52.127Z,100.00
2022-10-22T23:54:18.964Z,100.00
2022-10-22T23:56:45.933Z,100.00
